»·PEaware :: N2775 KVNY-KSBA

N2775 :: KVNY-KSBA

FLIGHT INFORMATION

Flight Status: Arrived
Operator: Privately registered:
United States
More flights under this callsign
Pilot: Robert M. (27798)
Aircraft: CESSNA 172 SKYHAWK
(C172)
More flights by this aircraft type
Origin: KVNY Van Nuys
United States
Destination: KSBA Santa Barbara Mun
United States
More flights between these airports :: More routes between these airports
Route:
File this flight plan on PilotEdge
Remarks:
Altitude:
(Current/Filed)
5,500ft
Speed:
(Current/Filed)
0kts
Departed: 19-Feb-21 04:22 PM
Arrived: 19-Feb-21 05:03 PM
Distance/Time
Traveled:
68nm/0:41
Distance/Time
To Go:
Arrived

Flight Plot

Page will automatically refresh every two minutes.


Map Options




Map Legend


Flown Route
Filed Route
Departure Airport
Arrival Airport
Navaid (VOR, NDB)
Fix

Horizontal Profiles

Position Reports

Time Latitude Longitude Heading Altitude Ground
Speed
19-Feb-21 16:07 34.217258 -118.497678 274 802ft 0kts
19-Feb-21 16:08 34.217258 -118.497678 274 802ft 0kts
19-Feb-21 16:09 34.217258 -118.497678 274 802ft 0kts
19-Feb-21 16:10 34.217258 -118.497678 274 802ft 0kts
19-Feb-21 16:11 34.217258 -118.497678 274 802ft 0kts
19-Feb-21 16:12 34.217258 -118.497678 274 802ft 0kts
19-Feb-21 16:13 34.217259 -118.497679 274 802ft 0kts
19-Feb-21 16:14 34.217258 -118.497679 274 802ft 0kts
19-Feb-21 16:14 34.217258 -118.497679 274 802ft 0kts
19-Feb-21 16:16 34.217024 -118.497637 100 802ft 8kts
19-Feb-21 16:16 34.217068 -118.495407 97 802ft 17kts
19-Feb-21 16:17 34.216749 -118.492834 94 798ft 0kts
19-Feb-21 16:19 34.218228 -118.492359 355 802ft 12kts
19-Feb-21 16:19 34.219116 -118.492190 79 805ft 0kts
19-Feb-21 16:20 34.219116 -118.492190 79 805ft 0kts
19-Feb-21 16:21 34.215709 -118.490970 175 794ft 53kts
19-Feb-21 16:23 34.193098 -118.491041 184 1221ft 93kts
19-Feb-21 16:23 34.183626 -118.510092 265 1947ft 89kts
19-Feb-21 16:24 34.189579 -118.543226 286 2468ft 107kts
19-Feb-21 16:25 34.197310 -118.577934 285 3016ft 107kts
19-Feb-21 16:26 34.207533 -118.612013 299 3524ft 107kts
19-Feb-21 16:27 34.214953 -118.644561 277 3965ft 108kts
19-Feb-21 16:28 34.215295 -118.665565 265 4216ft 110kts
19-Feb-21 16:29 34.213294 -118.702214 271 4628ft 109kts
19-Feb-21 16:30 34.213553 -118.738827 272 5022ft 109kts
19-Feb-21 16:31 34.212717 -118.777530 270 5045ft 120kts
19-Feb-21 16:32 34.208111 -118.817488 263 5164ft 120kts
19-Feb-21 16:33 34.201808 -118.854597 265 5581ft 103kts
19-Feb-21 16:34 34.199272 -118.890214 268 5907ft 99kts
19-Feb-21 16:35 34.203080 -118.921943 288 6478ft 92kts
19-Feb-21 16:36 34.207485 -118.955215 280 6687ft 111kts
19-Feb-21 16:37 34.211131 -118.993506 280 6715ft 117kts
19-Feb-21 16:38 34.214910 -119.032537 279 6707ft 117kts
19-Feb-21 16:39 34.214334 -119.070977 288 6708ft 115kts
19-Feb-21 16:40 34.223462 -119.108136 289 6709ft 115kts
19-Feb-21 16:41 34.232881 -119.145090 290 6708ft 115kts
19-Feb-21 16:42 34.242246 -119.182085 289 6709ft 115kts
19-Feb-21 16:43 34.253017 -119.218386 297 6706ft 114kts
19-Feb-21 16:44 34.265155 -119.253455 287 6708ft 115kts
19-Feb-21 16:45 34.270075 -119.291678 296 6708ft 113kts
19-Feb-21 16:46 34.282761 -119.326532 290 6708ft 114kts
19-Feb-21 16:47 34.291550 -119.363608 289 6708ft 114kts
19-Feb-21 16:48 34.301816 -119.399939 295 6708ft 114kts
19-Feb-21 16:49 34.314221 -119.435118 296 6708ft 114kts
19-Feb-21 16:50 34.325998 -119.470591 278 6707ft 116kts
19-Feb-21 16:51 34.330179 -119.508621 287 6709ft 114kts
19-Feb-21 16:52 34.343323 -119.543243 306 6700ft 112kts
19-Feb-21 16:53 34.356330 -119.577572 287 6699ft 114kts
19-Feb-21 16:54 34.361408 -119.612987 283 6697ft 100kts
19-Feb-21 16:55 34.365165 -119.645785 283 6700ft 97kts
19-Feb-21 16:56 34.371450 -119.677506 298 6370ft 103kts
19-Feb-21 16:57 34.388331 -119.708998 304 4963ft 115kts
19-Feb-21 16:58 34.403834 -119.742733 301 3666ft 114kts
19-Feb-21 16:59 34.417958 -119.777417 301 2428ft 113kts
19-Feb-21 17:00 34.428225 -119.804740 282 1447ft 95kts
19-Feb-21 17:01 34.427904 -119.837893 263 21ft 85kts
19-Feb-21 17:02 34.428474 -119.845705 61 12ft 0kts

Navigation Log

Ident Type
Flight plan parsing failed, navigation log unavailable